sensor_id;sensor_type;location;lat;lon;timestamp;temperature;humidity
22321;DHT22;11328;53.928;18.522;2023-07-13T00:02:23;19.60;99.90
22321;DHT22;11328;53.928;18.522;2023-07-13T00:04:51;19.60;99.90
22321;DHT22;11328;53.928;18.522;2023-07-13T00:07:19;19.60;99.90
22321;DHT22;11328;53.928;18.522;2023-07-13T00:09:51;19.40;99.90
22321;DHT22;11328;53.928;18.522;2023-07-13T00:12:28;19.30;99.90
22321;DHT22;11328;53.928;18.522;2023-07-13T00:15:02;19.20;99.90
22321;DHT22;11328;53.928;18.522;2023-07-13T00:17:32;19.00;99.90
22321;DHT22;11328;53.928;18.522;2023-07-13T00:19:59;19.00;99.90
22321;DHT22;11328;53.928;18.522;2023-07-13T00:22:26;18.90;99.90
22321;DHT22;11328;53.928;18.522;2023-07-13T00:24:54;19.00;99.90
22321;DHT22;11328;53.928;18.522;2023-07-13T00:27:24;19.10;99.90
22321;DHT22;11328;53.928;18.522;2023-07-13T00:29:53;19.20;99.90
22321;DHT22;11328;53.928;18.522;2023-07-13T00:32:20;19.20;99.90
22321;DHT22;11328;53.928;18.522;2023-07-13T00:34:47;19.20;99.90
22321;DHT22;11328;53.928;18.522;2023-07-13T00:37:14;19.20;99.90
22321;DHT22;11328;53.928;18.522;2023-07-13T00:39:41;19.20;99.90
22321;DHT22;11328;53.928;18.522;2023-07-13T00:42:09;19.20;99.90
22321;DHT22;11328;53.928;18.522;2023-07-13T00:44:36;19.20;99.90
22321;DHT22;11328;53.928;18.522;2023-07-13T00:47:03;19.20;99.90
22321;DHT22;11328;53.928;18.522;2023-07-13T00:49:32;19.30;99.90
22321;DHT22;11328;53.928;18.522;2023-07-13T00:52:07;19.30;99.90
22321;DHT22;11328;53.928;18.522;2023-07-13T00:54:39;19.20;99.90
22321;DHT22;11328;53.928;18.522;2023-07-13T00:57:16;19.10;99.90
22321;DHT22;11328;53.928;18.522;2023-07-13T00:59:52;19.10;99.90
22321;DHT22;11328;53.928;18.522;2023-07-13T01:02:22;19.10;99.90
22321;DHT22;11328;53.928;18.522;2023-07-13T01:04:50;19.10;99.90
22321;DHT22;11328;53.928;18.522;2023-07-13T01:07:18;19.00;99.90
22321;DHT22;11328;53.928;18.522;2023-07-13T01:09:45;19.00;99.90
22321;DHT22;11328;53.928;18.522;2023-07-13T01:12:12;19.00;99.90
22321;DHT22;11328;53.928;18.522;2023-07-13T01:14:40;18.90;99.90
22321;DHT22;11328;53.928;18.522;2023-07-13T01:17:11;18.90;99.90
22321;DHT22;11328;53.928;18.522;2023-07-13T01:19:43;18.90;99.90
22321;DHT22;11328;53.928;18.522;2023-07-13T01:22:15;18.90;99.90
22321;DHT22;11328;53.928;18.522;2023-07-13T01:24:46;18.60;99.90
22321;DHT22;11328;53.928;18.522;2023-07-13T01:27:16;18.40;99.90
22321;DHT22;11328;53.928;18.522;2023-07-13T01:29:47;18.30;99.90
22321;DHT22;11328;53.928;18.522;2023-07-13T01:32:17;18.30;99.90
22321;DHT22;11328;53.928;18.522;2023-07-13T01:34:52;18.40;99.90
22321;DHT22;11328;53.928;18.522;2023-07-13T01:37:25;18.50;99.90
22321;DHT22;11328;53.928;18.522;2023-07-13T01:39:53;18.60;99.90
22321;DHT22;11328;53.928;18.522;2023-07-13T01:42:20;18.60;99.90
22321;DHT22;11328;53.928;18.522;2023-07-13T01:44:47;18.60;99.90
22321;DHT22;11328;53.928;18.522;2023-07-13T01:47:14;18.70;99.90
22321;DHT22;11328;53.928;18.522;2023-07-13T01:49:41;18.80;99.90
22321;DHT22;11328;53.928;18.522;2023-07-13T01:52:08;18.80;99.90
22321;DHT22;11328;53.928;18.522;2023-07-13T01:54:35;18.80;99.90
22321;DHT22;11328;53.928;18.522;2023-07-13T01:57:02;18.80;99.90
22321;DHT22;11328;53.928;18.522;2023-07-13T01:59:30;18.80;99.90
22321;DHT22;11328;53.928;18.522;2023-07-13T02:01:57;18.80;99.90
22321;DHT22;11328;53.928;18.522;2023-07-13T02:04:24;18.70;99.90
22321;DHT22;11328;53.928;18.522;2023-07-13T02:06:52;18.70;99.90
22321;DHT22;11328;53.928;18.522;2023-07-13T02:09:19;18.80;99.90
22321;DHT22;11328;53.928;18.522;2023-07-13T02:11:46;18.70;99.90
22321;DHT22;11328;53.928;18.522;2023-07-13T02:14:13;18.70;99.90
22321;DHT22;11328;53.928;18.522;2023-07-13T02:16:44;18.80;99.90
22321;DHT22;11328;53.928;18.522;2023-07-13T02:19:11;18.80;99.90
22321;DHT22;11328;53.928;18.522;2023-07-13T02:21:39;18.80;99.90
22321;DHT22;11328;53.928;18.522;2023-07-13T02:24:06;18.90;99.90
22321;DHT22;11328;53.928;18.522;2023-07-13T02:26:33;18.90;99.90
22321;DHT22;11328;53.928;18.522;2023-07-13T02:29:01;18.80;99.90
22321;DHT22;11328;53.928;18.522;2023-07-13T02:31:28;18.70;99.90
22321;DHT22;11328;53.928;18.522;2023-07-13T02:33:55;18.70;99.90
22321;DHT22;11328;53.928;18.522;2023-07-13T02:36:22;18.70;99.90
22321;DHT22;11328;53.928;18.522;2023-07-13T02:38:50;18.70;99.90
22321;DHT22;11328;53.928;18.522;2023-07-13T02:41:17;18.70;99.90
22321;DHT22;11328;53.928;18.522;2023-07-13T02:43:44;18.70;99.90
22321;DHT22;11328;53.928;18.522;2023-07-13T02:46:11;18.70;99.90
22321;DHT22;11328;53.928;18.522;2023-07-13T02:48:39;18.70;99.90
22321;DHT22;11328;53.928;18.522;2023-07-13T02:51:07;18.70;99.90
22321;DHT22;11328;53.928;18.522;2023-07-13T02:53:35;18.70;99.90
22321;DHT22;11328;53.928;18.522;2023-07-13T02:56:03;18.70;99.90
22321;DHT22;11328;53.928;18.522;2023-07-13T02:58:31;18.70;99.90
22321;DHT22;11328;53.928;18.522;2023-07-13T03:00:59;18.70;99.90
22321;DHT22;11328;53.928;18.522;2023-07-13T03:03:33;18.70;99.90
22321;DHT22;11328;53.928;18.522;2023-07-13T03:06:02;18.70;99.90
22321;DHT22;11328;53.928;18.522;2023-07-13T03:08:31;18.70;99.90
22321;DHT22;11328;53.928;18.522;2023-07-13T03:11:04;18.70;99.90
22321;DHT22;11328;53.928;18.522;2023-07-13T03:13:34;18.60;99.90
22321;DHT22;11328;53.928;18.522;2023-07-13T03:16:01;18.50;99.90
22321;DHT22;11328;53.928;18.522;2023-07-13T03:18:29;18.50;99.90
22321;DHT22;11328;53.928;18.522;2023-07-13T03:20:56;18.50;99.90
22321;DHT22;11328;53.928;18.522;2023-07-13T03:23:24;18.50;99.90
22321;DHT22;11328;53.928;18.522;2023-07-13T03:26:05;18.60;99.90
22321;DHT22;11328;53.928;18.522;2023-07-13T03:28:37;18.60;99.90
22321;DHT22;11328;53.928;18.522;2023-07-13T03:31:11;18.50;99.90
22321;DHT22;11328;53.928;18.522;2023-07-13T03:33:40;18.50;99.90
22321;DHT22;11328;53.928;18.522;2023-07-13T03:36:12;18.40;99.90
22321;DHT22;11328;53.928;18.522;2023-07-13T03:38:42;18.30;99.90
22321;DHT22;11328;53.928;18.522;2023-07-13T03:41:09;18.30;99.90
22321;DHT22;11328;53.928;18.522;2023-07-13T03:43:37;18.10;99.90
22321;DHT22;11328;53.928;18.522;2023-07-13T03:46:04;18.10;99.90
22321;DHT22;11328;53.928;18.522;2023-07-13T03:48:31;18.00;99.90
22321;DHT22;11328;53.928;18.522;2023-07-13T03:50:58;18.00;99.90
22321;DHT22;11328;53.928;18.522;2023-07-13T03:53:25;18.10;99.90
22321;DHT22;11328;53.928;18.522;2023-07-13T03:55:52;18.20;99.90
22321;DHT22;11328;53.928;18.522;2023-07-13T03:58:29;18.40;99.90
22321;DHT22;11328;53.928;18.522;2023-07-13T04:01:02;18.50;99.90
22321;DHT22;11328;53.928;18.522;2023-07-13T04:07:40;18.50;99.90
22321;DHT22;11328;53.928;18.522;2023-07-13T04:10:08;18.20;99.90
22321;DHT22;11328;53.928;18.522;2023-07-13T04:12:35;18.20;99.90
22321;DHT22;11328;53.928;18.522;2023-07-13T04:15:03;18.20;99.90
22321;DHT22;11328;53.928;18.522;2023-07-13T04:17:31;18.10;99.90
22321;DHT22;11328;53.928;18.522;2023-07-13T04:19:58;18.00;99.90
22321;DHT22;11328;53.928;18.522;2023-07-13T04:22:25;18.00;99.90
22321;DHT22;11328;53.928;18.522;2023-07-13T04:24:53;17.90;99.90
22321;DHT22;11328;53.928;18.522;2023-07-13T04:27:20;17.90;99.90
22321;DHT22;11328;53.928;18.522;2023-07-13T04:29:51;18.00;99.90
22321;DHT22;11328;53.928;18.522;2023-07-13T04:32:18;18.00;99.90
22321;DHT22;11328;53.928;18.522;2023-07-13T04:34:45;18.10;99.90
22321;DHT22;11328;53.928;18.522;2023-07-13T04:37:12;18.20;99.90
22321;DHT22;11328;53.928;18.522;2023-07-13T04:39:39;18.30;99.90
22321;DHT22;11328;53.928;18.522;2023-07-13T04:42:06;18.30;99.90
22321;DHT22;11328;53.928;18.522;2023-07-13T04:44:34;18.40;99.90
22321;DHT22;11328;53.928;18.522;2023-07-13T04:47:01;18.40;99.90
22321;DHT22;11328;53.928;18.522;2023-07-13T04:49:28;18.40;99.90
22321;DHT22;11328;53.928;18.522;2023-07-13T04:51:55;18.50;99.90
22321;DHT22;11328;53.928;18.522;2023-07-13T04:54:22;18.60;99.90
22321;DHT22;11328;53.928;18.522;2023-07-13T04:56:49;18.60;99.90
22321;DHT22;11328;53.928;18.522;2023-07-13T04:59:16;18.70;99.90
22321;DHT22;11328;53.928;18.522;2023-07-13T05:01:43;18.80;99.90
22321;DHT22;11328;53.928;18.522;2023-07-13T05:04:10;18.90;99.90
22321;DHT22;11328;53.928;18.522;2023-07-13T05:06:37;19.00;99.90
22321;DHT22;11328;53.928;18.522;2023-07-13T05:09:05;19.10;99.90
22321;DHT22;11328;53.928;18.522;2023-07-13T05:11:34;19.20;99.90
22321;DHT22;11328;53.928;18.522;2023-07-13T05:14:01;19.20;99.90
22321;DHT22;11328;53.928;18.522;2023-07-13T05:16:28;19.30;99.90
22321;DHT22;11328;53.928;18.522;2023-07-13T05:18:56;19.30;99.90
22321;DHT22;11328;53.928;18.522;2023-07-13T05:21:23;19.50;99.90
22321;DHT22;11328;53.928;18.522;2023-07-13T05:23:51;19.60;99.90
22321;DHT22;11328;53.928;18.522;2023-07-13T05:26:18;19.70;99.90
22321;DHT22;11328;53.928;18.522;2023-07-13T05:28:45;19.90;99.90
22321;DHT22;11328;53.928;18.522;2023-07-13T05:31:13;20.00;99.90
22321;DHT22;11328;53.928;18.522;2023-07-13T05:33:41;20.20;99.90
22321;DHT22;11328;53.928;18.522;2023-07-13T05:36:08;20.30;99.90
22321;DHT22;11328;53.928;18.522;2023-07-13T05:38:35;20.50;99.90
22321;DHT22;11328;53.928;18.522;2023-07-13T05:41:03;20.80;99.90
22321;DHT22;11328;53.928;18.522;2023-07-13T05:43:32;21.00;99.90
22321;DHT22;11328;53.928;18.522;2023-07-13T05:46:00;21.10;99.90
22321;DHT22;11328;53.928;18.522;2023-07-13T05:48:27;21.20;99.90
22321;DHT22;11328;53.928;18.522;2023-07-13T05:50:54;21.30;99.90
22321;DHT22;11328;53.928;18.522;2023-07-13T05:53:21;21.30;99.90
22321;DHT22;11328;53.928;18.522;2023-07-13T05:55:48;21.50;99.90
22321;DHT22;11328;53.928;18.522;2023-07-13T05:58:17;21.60;99.90
22321;DHT22;11328;53.928;18.522;2023-07-13T06:00:45;21.70;99.90
22321;DHT22;11328;53.928;18.522;2023-07-13T06:03:13;21.70;99.90
22321;DHT22;11328;53.928;18.522;2023-07-13T06:05:41;21.80;99.90
22321;DHT22;11328;53.928;18.522;2023-07-13T06:08:09;22.00;99.90
22321;DHT22;11328;53.928;18.522;2023-07-13T06:10:36;22.20;99.90
22321;DHT22;11328;53.928;18.522;2023-07-13T06:13:03;22.50;99.90
22321;DHT22;11328;53.928;18.522;2023-07-13T06:15:31;22.80;99.90
22321;DHT22;11328;53.928;18.522;2023-07-13T06:17:58;22.80;99.90
22321;DHT22;11328;53.928;18.522;2023-07-13T06:20:25;23.00;99.90
22321;DHT22;11328;53.928;18.522;2023-07-13T06:22:53;23.20;99.90
22321;DHT22;11328;53.928;18.522;2023-07-13T06:25:20;23.30;99.90
22321;DHT22;11328;53.928;18.522;2023-07-13T06:27:47;23.50;99.90
22321;DHT22;11328;53.928;18.522;2023-07-13T06:30:14;23.60;99.90
22321;DHT22;11328;53.928;18.522;2023-07-13T06:32:41;23.60;99.90
22321;DHT22;11328;53.928;18.522;2023-07-13T06:35:08;23.50;99.90
22321;DHT22;11328;53.928;18.522;2023-07-13T06:37:39;23.40;99.90
22321;DHT22;11328;53.928;18.522;2023-07-13T06:40:07;23.20;99.90
22321;DHT22;11328;53.928;18.522;2023-07-13T06:42:34;23.20;99.90
22321;DHT22;11328;53.928;18.522;2023-07-13T06:45:02;23.10;99.90
22321;DHT22;11328;53.928;18.522;2023-07-13T06:47:29;23.00;99.90
22321;DHT22;11328;53.928;18.522;2023-07-13T06:50:00;23.10;99.90
22321;DHT22;11328;53.928;18.522;2023-07-13T06:52:27;23.20;99.90
22321;DHT22;11328;53.928;18.522;2023-07-13T06:54:55;23.10;99.90
22321;DHT22;11328;53.928;18.522;2023-07-13T06:57:22;23.00;99.90
22321;DHT22;11328;53.928;18.522;2023-07-13T06:59:49;23.00;99.90
22321;DHT22;11328;53.928;18.522;2023-07-13T07:02:16;23.10;99.90
22321;DHT22;11328;53.928;18.522;2023-07-13T07:04:43;23.30;99.90
22321;DHT22;11328;53.928;18.522;2023-07-13T07:07:10;23.70;99.90
22321;DHT22;11328;53.928;18.522;2023-07-13T07:09:37;23.80;99.90
22321;DHT22;11328;53.928;18.522;2023-07-13T07:12:05;24.10;99.90
22321;DHT22;11328;53.928;18.522;2023-07-13T07:14:32;24.20;99.90
22321;DHT22;11328;53.928;18.522;2023-07-13T07:17:01;24.00;99.90
22321;DHT22;11328;53.928;18.522;2023-07-13T07:19:30;24.10;99.90
22321;DHT22;11328;53.928;18.522;2023-07-13T07:21:58;24.30;99.90
22321;DHT22;11328;53.928;18.522;2023-07-13T07:24:25;24.20;99.90
22321;DHT22;11328;53.928;18.522;2023-07-13T07:26:52;24.30;99.90
22321;DHT22;11328;53.928;18.522;2023-07-13T07:29:22;24.60;99.90
22321;DHT22;11328;53.928;18.522;2023-07-13T07:31:54;24.70;99.90
22321;DHT22;11328;53.928;18.522;2023-07-13T07:34:24;24.60;99.90
22321;DHT22;11328;53.928;18.522;2023-07-13T07:36:52;25.00;99.90
22321;DHT22;11328;53.928;18.522;2023-07-13T07:39:23;25.00;99.90
22321;DHT22;11328;53.928;18.522;2023-07-13T07:41:50;24.60;99.90
22321;DHT22;11328;53.928;18.522;2023-07-13T07:44:20;24.40;99.90
22321;DHT22;11328;53.928;18.522;2023-07-13T07:46:47;24.40;99.90
22321;DHT22;11328;53.928;18.522;2023-07-13T07:49:15;24.60;99.90
22321;DHT22;11328;53.928;18.522;2023-07-13T07:51:42;25.00;99.90
22321;DHT22;11328;53.928;18.522;2023-07-13T07:54:09;25.20;99.90
22321;DHT22;11328;53.928;18.522;2023-07-13T07:56:42;25.00;99.90
22321;DHT22;11328;53.928;18.522;2023-07-13T07:59:12;25.00;99.90
22321;DHT22;11328;53.928;18.522;2023-07-13T08:01:42;25.20;99.90
22321;DHT22;11328;53.928;18.522;2023-07-13T08:04:15;25.20;99.90
22321;DHT22;11328;53.928;18.522;2023-07-13T08:07:02;24.80;99.90
22321;DHT22;11328;53.928;18.522;2023-07-13T08:09:29;24.60;99.90
22321;DHT22;11328;53.928;18.522;2023-07-13T08:11:57;25.00;99.90
22321;DHT22;11328;53.928;18.522;2023-07-13T08:14:27;25.20;99.90
22321;DHT22;11328;53.928;18.522;2023-07-13T08:17:12;25.30;99.90
22321;DHT22;11328;53.928;18.522;2023-07-13T08:19:40;25.50;99.90
22321;DHT22;11328;53.928;18.522;2023-07-13T08:22:07;25.40;99.90
22321;DHT22;11328;53.928;18.522;2023-07-13T08:24:33;25.50;99.90
22321;DHT22;11328;53.928;18.522;2023-07-13T08:27:01;25.20;99.90
22321;DHT22;11328;53.928;18.522;2023-07-13T08:29:28;25.00;99.90
22321;DHT22;11328;53.928;18.522;2023-07-13T08:31:58;24.80;99.90
22321;DHT22;11328;53.928;18.522;2023-07-13T08:34:26;24.90;99.90
22321;DHT22;11328;53.928;18.522;2023-07-13T08:36:53;24.90;99.90
22321;DHT22;11328;53.928;18.522;2023-07-13T08:39:20;25.40;99.90
22321;DHT22;11328;53.928;18.522;2023-07-13T08:41:50;25.50;99.90
22321;DHT22;11328;53.928;18.522;2023-07-13T08:44:44;25.70;99.90
22321;DHT22;11328;53.928;18.522;2023-07-13T08:47:16;25.80;99.90
22321;DHT22;11328;53.928;18.522;2023-07-13T08:49:46;25.90;99.90
22321;DHT22;11328;53.928;18.522;2023-07-13T08:52:39;25.70;99.90
22321;DHT22;11328;53.928;18.522;2023-07-13T08:55:18;26.10;99.90
22321;DHT22;11328;53.928;18.522;2023-07-13T08:58:12;26.30;99.90
22321;DHT22;11328;53.928;18.522;2023-07-13T09:06:39;26.00;99.90
22321;DHT22;11328;53.928;18.522;2023-07-13T09:09:36;26.30;99.90
22321;DHT22;11328;53.928;18.522;2023-07-13T09:12:51;26.20;99.90
22321;DHT22;11328;53.928;18.522;2023-07-13T09:15:43;26.50;99.90
22321;DHT22;11328;53.928;18.522;2023-07-13T09:18:38;27.00;99.90
22321;DHT22;11328;53.928;18.522;2023-07-13T09:24:24;27.10;99.90
22321;DHT22;11328;53.928;18.522;2023-07-13T09:26:54;26.70;99.90
22321;DHT22;11328;53.928;18.522;2023-07-13T09:29:33;26.60;99.90
22321;DHT22;11328;53.928;18.522;2023-07-13T09:32:06;26.90;99.90
22321;DHT22;11328;53.928;18.522;2023-07-13T09:34:37;27.00;99.90
22321;DHT22;11328;53.928;18.522;2023-07-13T09:37:06;27.40;99.90
22321;DHT22;11328;53.928;18.522;2023-07-13T09:39:36;27.90;99.90
22321;DHT22;11328;53.928;18.522;2023-07-13T09:44:58;27.90;99.90
22321;DHT22;11328;53.928;18.522;2023-07-13T09:47:38;27.70;99.90
22321;DHT22;11328;53.928;18.522;2023-07-13T09:50:14;27.20;99.90
22321;DHT22;11328;53.928;18.522;2023-07-13T09:52:47;26.90;99.90
22321;DHT22;11328;53.928;18.522;2023-07-13T09:55:37;27.00;99.90
22321;DHT22;11328;53.928;18.522;2023-07-13T09:58:14;26.90;99.90
22321;DHT22;11328;53.928;18.522;2023-07-13T10:01:02;27.00;99.90
22321;DHT22;11328;53.928;18.522;2023-07-13T10:03:36;27.30;99.90
22321;DHT22;11328;53.928;18.522;2023-07-13T10:06:17;27.30;99.90
22321;DHT22;11328;53.928;18.522;2023-07-13T10:08:46;27.20;99.90
22321;DHT22;11328;53.928;18.522;2023-07-13T10:11:19;27.30;99.90
22321;DHT22;11328;53.928;18.522;2023-07-13T10:16:31;27.70;99.90
22321;DHT22;11328;53.928;18.522;2023-07-13T10:19:19;27.60;99.90
22321;DHT22;11328;53.928;18.522;2023-07-13T10:21:55;27.70;99.90
22321;DHT22;11328;53.928;18.522;2023-07-13T10:24:27;27.70;99.90
22321;DHT22;11328;53.928;18.522;2023-07-13T10:27:20;27.50;99.90
22321;DHT22;11328;53.928;18.522;2023-07-13T10:32:47;27.50;99.90
22321;DHT22;11328;53.928;18.522;2023-07-13T10:35:16;27.30;99.90
22321;DHT22;11328;53.928;18.522;2023-07-13T10:37:57;26.90;99.90
22321;DHT22;11328;53.928;18.522;2023-07-13T10:40:40;26.60;99.90
22321;DHT22;11328;53.928;18.522;2023-07-13T10:43:35;26.30;99.90
22321;DHT22;11328;53.928;18.522;2023-07-13T10:46:09;26.30;99.90
22321;DHT22;11328;53.928;18.522;2023-07-13T10:48:43;26.40;99.90
22321;DHT22;11328;53.928;18.522;2023-07-13T10:51:17;26.20;99.90
22321;DHT22;11328;53.928;18.522;2023-07-13T10:53:45;26.30;99.90
22321;DHT22;11328;53.928;18.522;2023-07-13T10:56:27;26.50;99.90
22321;DHT22;11328;53.928;18.522;2023-07-13T10:59:11;26.80;99.90
22321;DHT22;11328;53.928;18.522;2023-07-13T11:02:00;27.20;99.90
22321;DHT22;11328;53.928;18.522;2023-07-13T11:04:46;27.30;99.90
22321;DHT22;11328;53.928;18.522;2023-07-13T11:09:59;27.40;99.90
22321;DHT22;11328;53.928;18.522;2023-07-13T11:12:53;27.50;99.90
22321;DHT22;11328;53.928;18.522;2023-07-13T11:15:38;27.70;99.90
22321;DHT22;11328;53.928;18.522;2023-07-13T11:18:22;27.80;99.90
22321;DHT22;11328;53.928;18.522;2023-07-13T11:20:52;27.90;99.90
22321;DHT22;11328;53.928;18.522;2023-07-13T11:24:16;28.10;99.90
22321;DHT22;11328;53.928;18.522;2023-07-13T11:29:24;28.50;99.90
22321;DHT22;11328;53.928;18.522;2023-07-13T11:32:00;28.60;99.90
22321;DHT22;11328;53.928;18.522;2023-07-13T11:34:48;28.60;99.90
22321;DHT22;11328;53.928;18.522;2023-07-13T11:37:17;28.60;99.90
22321;DHT22;11328;53.928;18.522;2023-07-13T11:39:49;28.80;99.90
22321;DHT22;11328;53.928;18.522;2023-07-13T11:42:21;29.10;99.90
22321;DHT22;11328;53.928;18.522;2023-07-13T11:44:50;29.10;99.90
22321;DHT22;11328;53.928;18.522;2023-07-13T11:47:40;28.80;99.90
22321;DHT22;11328;53.928;18.522;2023-07-13T11:50:21;28.50;99.90
22321;DHT22;11328;53.928;18.522;2023-07-13T11:52:51;28.20;99.90
22321;DHT22;11328;53.928;18.522;2023-07-13T11:55:23;28.10;99.90
22321;DHT22;11328;53.928;18.522;2023-07-13T11:57:59;28.10;99.90
22321;DHT22;11328;53.928;18.522;2023-07-13T12:00:29;28.10;99.90
22321;DHT22;11328;53.928;18.522;2023-07-13T12:03:02;28.00;99.90
22321;DHT22;11328;53.928;18.522;2023-07-13T12:05:32;28.00;99.90
22321;DHT22;11328;53.928;18.522;2023-07-13T12:07:59;28.20;99.90
22321;DHT22;11328;53.928;18.522;2023-07-13T12:10:59;28.30;99.90
22321;DHT22;11328;53.928;18.522;2023-07-13T12:13:37;28.50;99.90
22321;DHT22;11328;53.928;18.522;2023-07-13T12:16:16;28.70;99.90
22321;DHT22;11328;53.928;18.522;2023-07-13T12:18:52;29.00;99.90
22321;DHT22;11328;53.928;18.522;2023-07-13T12:21:24;29.10;99.90
22321;DHT22;11328;53.928;18.522;2023-07-13T12:23:58;29.30;99.90
22321;DHT22;11328;53.928;18.522;2023-07-13T12:26:26;29.40;99.90
22321;DHT22;11328;53.928;18.522;2023-07-13T12:28:54;29.20;99.90
22321;DHT22;11328;53.928;18.522;2023-07-13T12:31:26;29.10;99.90
22321;DHT22;11328;53.928;18.522;2023-07-13T12:34:24;28.90;99.90
22321;DHT22;11328;53.928;18.522;2023-07-13T12:36:59;28.60;99.90
22321;DHT22;11328;53.928;18.522;2023-07-13T12:39:34;28.30;99.90
22321;DHT22;11328;53.928;18.522;2023-07-13T12:42:24;28.20;99.90
22321;DHT22;11328;53.928;18.522;2023-07-13T12:45:12;27.90;99.90
22321;DHT22;11328;53.928;18.522;2023-07-13T12:47:48;27.90;99.90
22321;DHT22;11328;53.928;18.522;2023-07-13T12:50:22;27.90;99.90
22321;DHT22;11328;53.928;18.522;2023-07-13T12:52:59;28.00;99.90
22321;DHT22;11328;53.928;18.522;2023-07-13T12:55:52;28.00;99.90
22321;DHT22;11328;53.928;18.522;2023-07-13T12:58:26;28.00;99.90
22321;DHT22;11328;53.928;18.522;2023-07-13T13:00:57;27.80;99.90
22321;DHT22;11328;53.928;18.522;2023-07-13T13:03:37;27.60;99.90
22321;DHT22;11328;53.928;18.522;2023-07-13T13:08:42;27.40;99.90
22321;DHT22;11328;53.928;18.522;2023-07-13T13:11:10;27.50;99.90
22321;DHT22;11328;53.928;18.522;2023-07-13T13:13:37;27.50;99.90
22321;DHT22;11328;53.928;18.522;2023-07-13T13:16:11;27.50;99.90
22321;DHT22;11328;53.928;18.522;2023-07-13T13:18:44;27.60;99.90
22321;DHT22;11328;53.928;18.522;2023-07-13T13:21:11;27.90;99.90
22321;DHT22;11328;53.928;18.522;2023-07-13T13:23:38;28.00;99.90
22321;DHT22;11328;53.928;18.522;2023-07-13T13:26:15;28.10;99.90
22321;DHT22;11328;53.928;18.522;2023-07-13T13:28:43;28.10;99.90
22321;DHT22;11328;53.928;18.522;2023-07-13T13:31:12;27.90;99.90
22321;DHT22;11328;53.928;18.522;2023-07-13T13:33:41;28.00;99.90
22321;DHT22;11328;53.928;18.522;2023-07-13T13:36:22;28.20;99.90
22321;DHT22;11328;53.928;18.522;2023-07-13T13:38:50;28.20;99.90
22321;DHT22;11328;53.928;18.522;2023-07-13T13:41:18;28.20;99.90
22321;DHT22;11328;53.928;18.522;2023-07-13T13:43:45;28.30;99.90
22321;DHT22;11328;53.928;18.522;2023-07-13T13:46:21;28.40;99.90
22321;DHT22;11328;53.928;18.522;2023-07-13T13:48:52;28.40;99.90
22321;DHT22;11328;53.928;18.522;2023-07-13T13:51:20;28.40;99.90
22321;DHT22;11328;53.928;18.522;2023-07-13T13:53:50;28.40;99.90
22321;DHT22;11328;53.928;18.522;2023-07-13T13:56:18;28.40;99.90
22321;DHT22;11328;53.928;18.522;2023-07-13T13:58:46;28.40;99.90
22321;DHT22;11328;53.928;18.522;2023-07-13T14:01:20;28.30;98.50
22321;DHT22;11328;53.928;18.522;2023-07-13T14:03:50;28.30;99.90
22321;DHT22;11328;53.928;18.522;2023-07-13T14:06:20;28.50;99.90
22321;DHT22;11328;53.928;18.522;2023-07-13T14:08:47;28.50;99.90
22321;DHT22;11328;53.928;18.522;2023-07-13T14:11:17;28.60;99.60
22321;DHT22;11328;53.928;18.522;2023-07-13T14:13:57;28.60;99.90
22321;DHT22;11328;53.928;18.522;2023-07-13T14:16:29;28.70;98.90
22321;DHT22;11328;53.928;18.522;2023-07-13T14:18:58;28.60;98.30
22321;DHT22;11328;53.928;18.522;2023-07-13T14:21:28;28.60;97.00
22321;DHT22;11328;53.928;18.522;2023-07-13T14:23:56;28.30;97.80
22321;DHT22;11328;53.928;18.522;2023-07-13T14:26:25;28.30;97.90
22321;DHT22;11328;53.928;18.522;2023-07-13T14:28:56;28.50;97.90
22321;DHT22;11328;53.928;18.522;2023-07-13T14:31:26;28.60;98.60
22321;DHT22;11328;53.928;18.522;2023-07-13T14:33:57;28.30;96.50
22321;DHT22;11328;53.928;18.522;2023-07-13T14:36:33;28.20;97.70
22321;DHT22;11328;53.928;18.522;2023-07-13T14:39:29;28.40;96.60
22321;DHT22;11328;53.928;18.522;2023-07-13T14:41:58;28.30;96.10
22321;DHT22;11328;53.928;18.522;2023-07-13T14:44:28;28.10;96.00
22321;DHT22;11328;53.928;18.522;2023-07-13T14:46:58;27.90;96.60
22321;DHT22;11328;53.928;18.522;2023-07-13T14:49:37;27.90;96.10
22321;DHT22;11328;53.928;18.522;2023-07-13T14:52:20;28.00;95.90
22321;DHT22;11328;53.928;18.522;2023-07-13T14:54:53;28.00;96.60
22321;DHT22;11328;53.928;18.522;2023-07-13T14:57:21;28.10;97.40
22321;DHT22;11328;53.928;18.522;2023-07-13T14:59:49;28.30;97.10
22321;DHT22;11328;53.928;18.522;2023-07-13T15:02:26;28.50;95.80
22321;DHT22;11328;53.928;18.522;2023-07-13T15:04:57;28.60;97.20
22321;DHT22;11328;53.928;18.522;2023-07-13T15:07:25;28.50;96.00
22321;DHT22;11328;53.928;18.522;2023-07-13T15:09:52;28.30;95.00
22321;DHT22;11328;53.928;18.522;2023-07-13T15:12:20;28.00;95.80
22321;DHT22;11328;53.928;18.522;2023-07-13T15:14:51;28.00;94.30
22321;DHT22;11328;53.928;18.522;2023-07-13T15:17:31;28.00;96.00
22321;DHT22;11328;53.928;18.522;2023-07-13T15:22:45;28.30;97.60
22321;DHT22;11328;53.928;18.522;2023-07-13T15:25:24;28.30;99.20
22321;DHT22;11328;53.928;18.522;2023-07-13T15:27:55;28.20;99.90
22321;DHT22;11328;53.928;18.522;2023-07-13T15:30:30;28.10;99.90
22321;DHT22;11328;53.928;18.522;2023-07-13T15:33:22;28.00;99.90
22321;DHT22;11328;53.928;18.522;2023-07-13T15:35:55;27.80;99.90
22321;DHT22;11328;53.928;18.522;2023-07-13T15:38:29;27.60;99.90
22321;DHT22;11328;53.928;18.522;2023-07-13T15:40:58;27.40;99.90
22321;DHT22;11328;53.928;18.522;2023-07-13T15:43:32;27.20;99.90
22321;DHT22;11328;53.928;18.522;2023-07-13T15:46:00;27.10;99.90
22321;DHT22;11328;53.928;18.522;2023-07-13T15:48:27;27.00;99.90
22321;DHT22;11328;53.928;18.522;2023-07-13T15:51:00;26.90;99.90
22321;DHT22;11328;53.928;18.522;2023-07-13T15:53:30;26.80;99.90
22321;DHT22;11328;53.928;18.522;2023-07-13T15:56:00;26.80;99.90
22321;DHT22;11328;53.928;18.522;2023-07-13T15:58:30;26.80;99.90
22321;DHT22;11328;53.928;18.522;2023-07-13T16:01:00;26.80;99.90
22321;DHT22;11328;53.928;18.522;2023-07-13T16:03:27;26.70;99.90
22321;DHT22;11328;53.928;18.522;2023-07-13T16:05:55;26.70;99.90
22321;DHT22;11328;53.928;18.522;2023-07-13T16:08:30;26.50;99.90
22321;DHT22;11328;53.928;18.522;2023-07-13T16:11:00;26.50;99.90
22321;DHT22;11328;53.928;18.522;2023-07-13T16:13:27;26.40;99.90
22321;DHT22;11328;53.928;18.522;2023-07-13T16:15:56;26.30;99.90